createdAt,value
2018-01-03T00:02:03.003Z,5.8
2018-01-03T00:07:03.290Z,5.9
2018-01-03T00:12:03.364Z,5.9
2018-01-03T00:17:03.493Z,6.1
2018-01-03T00:22:02.930Z,6.2
2018-01-03T00:27:02.816Z,6.2
2018-01-03T00:32:02.786Z,6.3
2018-01-03T00:37:03.258Z,6.4
2018-01-03T00:42:03.050Z,6.4
2018-01-03T00:47:03.116Z,6.4
2018-01-03T00:52:02.814Z,6.4
2018-01-03T00:57:03.059Z,6.4
2018-01-03T01:02:02.712Z,6.3
2018-01-03T01:07:03.373Z,6.2
2018-01-03T01:12:03.402Z,6.2
2018-01-03T01:17:03.366Z,6.1
2018-01-03T01:22:03.560Z,6.1
2018-01-03T01:27:03.681Z,6.0
2018-01-03T01:32:03.238Z,6.0
2018-01-03T01:37:03.213Z,6.0
2018-01-03T01:42:02.870Z,6.1
2018-01-03T01:47:02.767Z,6.0
2018-01-03T01:52:02.780Z,6.1
2018-01-03T01:57:02.683Z,6.1
2018-01-03T02:02:02.774Z,6.2
2018-01-03T02:07:03.140Z,6.3
2018-01-03T02:12:03.287Z,6.3
2018-01-03T02:17:03.163Z,6.3
2018-01-03T02:22:02.791Z,6.5
2018-01-03T02:27:03.581Z,6.6
2018-01-03T02:32:03.081Z,6.7
2018-01-03T02:37:02.932Z,6.8
2018-01-03T02:42:03.497Z,6.9
2018-01-03T02:47:02.951Z,7.0
2018-01-03T02:52:02.950Z,7.2
2018-01-03T02:57:02.854Z,7.2
2018-01-03T03:02:02.869Z,7.2
2018-01-03T03:07:03.150Z,7.4
2018-01-03T03:12:03.070Z,7.6
2018-01-03T03:17:03.419Z,7.5
2018-01-03T03:22:03.186Z,7.8
2018-01-03T03:27:03.376Z,7.8
2018-01-03T03:32:02.839Z,8.0
2018-01-03T03:37:03.132Z,8.2
2018-01-03T03:42:03.129Z,9.1
2018-01-03T03:47:02.778Z,9.0
2018-01-03T03:52:02.939Z,9.7
2018-01-03T03:57:03.476Z,9.7
2018-01-03T04:02:03.670Z,10.2
2018-01-03T04:07:02.904Z,10.2
2018-01-03T04:12:03.200Z,10.6
2018-01-03T04:17:03.486Z,10.6
2018-01-03T04:22:03.610Z,10.7
2018-01-03T04:27:02.880Z,10.9
2018-01-03T04:32:03.373Z,11.0
2018-01-03T04:37:03.129Z,10.8
2018-01-03T04:42:03.269Z,10.6
2018-01-03T04:47:03.546Z,10.6
2018-01-03T04:52:02.663Z,10.7
2018-01-03T04:57:03.229Z,10.6
2018-01-03T05:02:03.527Z,10.6
2018-01-03T05:07:02.942Z,10.4
2018-01-03T05:12:03.265Z,10.4
2018-01-03T05:17:03.435Z,10.4
2018-01-03T05:22:03.126Z,10.4
2018-01-03T05:27:03.255Z,10.4
2018-01-03T05:32:03.346Z,10.4
2018-01-03T05:37:03.516Z,10.4
2018-01-03T05:42:02.661Z,10.5
2018-01-03T05:47:02.940Z,10.6
2018-01-03T05:52:03.489Z,10.6
2018-01-03T05:57:03.552Z,10.7
2018-01-03T06:02:02.764Z,11.0
2018-01-03T06:07:03.392Z,11.1
2018-01-03T06:12:03.640Z,11.1
2018-01-03T06:17:03.302Z,11.0
2018-01-03T06:22:03.303Z,10.9
2018-01-03T06:27:03.598Z,10.8
2018-01-03T06:32:02.998Z,10.9
2018-01-03T06:37:03.068Z,11.0
2018-01-03T06:42:03.394Z,11.2
2018-01-03T06:47:10.008Z,11.2
2018-01-03T06:52:03.113Z,11.7
2018-01-03T06:57:03.538Z,11.9
2018-01-03T07:02:13.793Z,11.9
2018-01-03T07:07:03.585Z,11.8
2018-01-03T07:12:03.434Z,11.6
2018-01-03T07:17:13.478Z,11.3
2018-01-03T07:22:03.529Z,11.2
2018-01-03T07:27:02.972Z,11.1
2018-01-03T07:32:17.748Z,11.1
2018-01-03T07:37:03.651Z,11.0
2018-01-03T07:42:03.585Z,8.2
2018-01-03T07:47:20.756Z,8.1
2018-01-03T07:52:02.791Z,7.4
2018-01-03T07:57:03.265Z,7.3
2018-01-03T08:02:14.005Z,7.0
2018-01-03T08:07:03.663Z,6.9
2018-01-03T08:12:03.552Z,6.8
2018-01-03T08:17:14.146Z,6.8
2018-01-03T08:22:03.094Z,6.9
2018-01-03T08:27:03.284Z,6.8
2018-01-03T08:32:13.511Z,6.9
2018-01-03T08:37:02.959Z,7.0
2018-01-03T08:42:03.428Z,7.0
2018-01-03T08:47:13.912Z,7.2
2018-01-03T08:52:02.890Z,7.2
2018-01-03T08:57:03.523Z,7.4
2018-01-03T09:02:11.429Z,7.5
2018-01-03T09:07:03.021Z,7.4
2018-01-03T09:12:02.780Z,7.4
2018-01-03T09:17:16.443Z,7.4
2018-01-03T09:22:03.167Z,7.3
2018-01-03T09:27:02.885Z,7.3
2018-01-03T09:32:13.513Z,7.2
2018-01-03T09:37:02.828Z,7.2
2018-01-03T09:42:03.175Z,7.2
2018-01-03T09:47:13.676Z,7.1
2018-01-03T09:52:02.703Z,7.0
2018-01-03T09:57:03.224Z,6.8
2018-01-03T10:02:13.208Z,6.6
2018-01-03T10:07:02.905Z,6.4
2018-01-03T10:12:03.731Z,6.1
2018-01-03T10:17:13.949Z,5.9
2018-01-03T10:22:03.169Z,5.9
2018-01-03T10:27:02.961Z,5.8
2018-01-03T10:32:18.139Z,5.6
2018-01-03T10:37:03.375Z,5.6
2018-01-03T10:42:02.948Z,5.6
2018-01-03T10:47:12.919Z,5.6
2018-01-03T10:52:02.741Z,5.7
2018-01-03T10:57:02.983Z,5.7
2018-01-03T11:02:13.227Z,5.9
2018-01-03T11:07:02.815Z,6.3
2018-01-03T11:12:02.790Z,6.7
2018-01-03T11:17:13.685Z,6.6
2018-01-03T11:22:03.109Z,6.6
2018-01-03T11:27:02.900Z,6.7
2018-01-03T11:32:18.347Z,6.7
2018-01-03T11:37:03.202Z,6.5
2018-01-03T11:42:02.832Z,6.5
2018-01-03T11:47:14.340Z,6.3
2018-01-03T11:52:03.322Z,6.4
2018-01-03T11:57:03.186Z,6.5
2018-01-03T12:02:13.371Z,6.8
2018-01-03T12:07:02.969Z,7.2
2018-01-03T12:12:02.950Z,7.3
2018-01-03T12:17:13.340Z,7.3
2018-01-03T12:22:02.919Z,7.2
2018-01-03T12:27:03.619Z,7.2
2018-01-03T12:32:13.685Z,7.3
2018-01-03T12:37:03.144Z,7.5
2018-01-03T12:42:02.891Z,7.6
2018-01-03T12:47:14.234Z,7.6
2018-01-03T12:52:03.426Z,7.7
2018-01-03T12:57:03.341Z,7.7
2018-01-03T13:02:13.465Z,7.7
2018-01-03T13:07:03.348Z,7.7
2018-01-03T13:12:02.902Z,7.8
2018-01-03T13:17:13.308Z,7.9
2018-01-03T13:22:03.098Z,8.0
2018-01-03T13:27:02.928Z,8.2
2018-01-03T13:32:13.213Z,8.3
2018-01-03T13:37:03.261Z,8.2
2018-01-03T13:42:03.350Z,8.3
2018-01-03T13:47:13.827Z,8.2
2018-01-03T13:52:02.676Z,8.2
2018-01-03T13:57:03.640Z,8.5
2018-01-03T14:02:05.667Z,8.1
2018-01-03T14:07:03.064Z,7.5
2018-01-03T14:12:03.118Z,7.5
2018-01-03T14:17:17.565Z,6.9
2018-01-03T14:22:02.911Z,6.9
2018-01-03T14:27:03.695Z,6.3
2018-01-03T14:32:12.399Z,6.0
2018-01-03T14:37:02.980Z,6.0
2018-01-03T14:42:02.866Z,5.9
2018-01-03T14:47:17.431Z,5.8
2018-01-03T14:52:02.707Z,5.8
2018-01-03T14:57:02.769Z,5.8
2018-01-03T15:02:13.072Z,5.8
2018-01-03T15:07:03.055Z,5.8
2018-01-03T15:12:03.375Z,5.8
2018-01-03T15:17:13.495Z,5.9
2018-01-03T15:22:02.869Z,6.0
2018-01-03T15:27:03.892Z,6.1
2018-01-03T15:32:11.710Z,6.1
2018-01-03T15:37:03.313Z,6.2
2018-01-03T15:42:02.646Z,6.5
2018-01-03T15:47:23.021Z,6.6
2018-01-03T15:52:02.914Z,6.6
2018-01-03T15:57:02.753Z,6.8
2018-01-03T16:02:30.147Z,6.7
2018-01-03T16:07:02.950Z,6.8
2018-01-03T16:12:03.182Z,7.0
2018-01-03T16:17:10.476Z,7.0
2018-01-03T16:22:03.412Z,7.0
2018-01-03T16:27:02.891Z,7.0
2018-01-03T16:32:03.619Z,7.0
2018-01-03T16:37:02.863Z,7.1
2018-01-03T16:42:03.411Z,7.1
2018-01-03T16:47:03.538Z,7.2
2018-01-03T16:52:03.566Z,7.3
2018-01-03T16:57:02.631Z,7.3
2018-01-03T17:02:02.999Z,7.3
2018-01-03T17:07:03.177Z,7.2
2018-01-03T17:12:03.463Z,6.9
2018-01-03T17:17:03.724Z,7.0
2018-01-03T17:22:02.900Z,7.0
2018-01-03T17:27:03.008Z,7.0
2018-01-03T17:32:10.777Z,6.9
2018-01-03T17:37:03.569Z,6.9
2018-01-03T17:42:03.082Z,6.8
2018-01-03T17:47:03.921Z,6.7
2018-01-03T17:52:02.867Z,6.7
2018-01-03T17:57:03.162Z,6.8
2018-01-03T18:02:03.957Z,6.8
2018-01-03T18:07:03.306Z,6.8
2018-01-03T18:12:03.552Z,6.9
2018-01-03T18:17:03.677Z,6.9
2018-01-03T18:22:03.154Z,7.0
2018-01-03T18:27:03.082Z,7.0
2018-01-03T18:32:02.811Z,7.1
2018-01-03T18:37:03.079Z,7.1
2018-01-03T18:42:03.079Z,7.1
2018-01-03T18:47:05.189Z,7.1
2018-01-03T18:52:03.498Z,6.8
2018-01-03T18:57:03.504Z,6.8
2018-01-03T19:02:02.763Z,6.7
2018-01-03T19:07:03.106Z,6.7
2018-01-03T19:12:03.435Z,6.7
2018-01-03T19:17:03.753Z,6.4
2018-01-03T19:22:03.589Z,6.3
2018-01-03T19:27:02.908Z,6.2
2018-01-03T19:32:03.198Z,6.1
2018-01-03T19:37:03.437Z,6.2
2018-01-03T19:42:03.611Z,6.1
2018-01-03T19:47:02.968Z,6.4
2018-01-03T19:52:03.120Z,6.3
2018-01-03T19:57:03.368Z,6.5
2018-01-03T20:02:03.120Z,6.4
2018-01-03T20:07:03.454Z,6.2
2018-01-03T20:12:03.227Z,6.2
2018-01-03T20:17:03.500Z,6.2
2018-01-03T20:22:02.916Z,6.3
2018-01-03T20:27:03.257Z,6.4
2018-01-03T20:32:03.441Z,6.7
2018-01-03T20:37:03.656Z,6.7
2018-01-03T20:42:02.897Z,6.8
2018-01-03T20:47:03.081Z,7.0
2018-01-03T20:52:03.202Z,6.9
2018-01-03T20:57:03.422Z,7.0
2018-01-03T21:02:03.504Z,6.7
2018-01-03T21:07:03.085Z,6.7
2018-01-03T21:12:03.265Z,6.7
2018-01-03T21:17:03.311Z,6.7
2018-01-03T21:22:03.453Z,6.8
2018-01-03T21:27:03.675Z,6.7
2018-01-03T21:32:03.739Z,6.6
2018-01-03T21:37:02.845Z,6.5
2018-01-03T21:42:03.078Z,6.4
2018-01-03T21:47:03.229Z,6.4
2018-01-03T21:52:03.228Z,6.3
2018-01-03T21:57:03.309Z,6.3
2018-01-03T22:02:03.343Z,6.4
2018-01-03T22:07:03.512Z,6.3
2018-01-03T22:12:02.799Z,5.9
2018-01-03T22:17:03.115Z,5.9
2018-01-03T22:22:03.372Z,5.6
2018-01-03T22:27:03.502Z,5.4
2018-01-03T22:32:03.896Z,5.3
2018-01-03T22:37:02.760Z,5.3
2018-01-03T22:42:03.028Z,5.1
2018-01-03T22:47:03.463Z,5.0
2018-01-03T22:52:03.207Z,4.9
2018-01-03T22:57:03.432Z,4.9
2018-01-03T23:02:03.333Z,4.9
2018-01-03T23:07:03.104Z,4.9
2018-01-03T23:12:03.228Z,4.9
2018-01-03T23:22:03.456Z,5.0
2018-01-03T23:27:03.172Z,5.0
2018-01-03T23:32:03.522Z,5.0
2018-01-03T23:37:03.266Z,5.1
2018-01-03T23:42:03.309Z,5.1
2018-01-03T23:47:03.423Z,5.1
2018-01-03T23:52:02.841Z,5.2
2018-01-03T23:57:02.999Z,5.3
